createdAt,value
2018-04-07T00:02:22.737Z,47.80
2018-04-07T00:04:50.985Z,48.00
2018-04-07T00:07:18.473Z,47.90
2018-04-07T00:09:46.753Z,48.20
2018-04-07T00:12:15.006Z,48.60
2018-04-07T00:14:42.515Z,48.60
2018-04-07T00:17:10.002Z,48.70
2018-04-07T00:19:37.506Z,49.10
2018-04-07T00:22:05.762Z,50.20
2018-04-07T00:24:33.273Z,50.20
2018-04-07T00:27:00.762Z,50.50
2018-04-07T00:29:28.270Z,50.90
2018-04-07T00:31:55.758Z,51.40
2018-04-07T00:34:23.270Z,51.80
2018-04-07T00:36:51.517Z,52.50
2018-04-07T00:39:19.025Z,52.50
2018-04-07T00:41:46.514Z,53.00
2018-04-07T00:44:14.021Z,53.00
2018-04-07T00:46:42.279Z,53.30
2018-04-07T00:49:09.785Z,53.40
2018-04-07T00:51:37.273Z,53.50
2018-04-07T00:54:04.761Z,53.60
2018-04-07T00:56:33.043Z,53.80
2018-04-07T00:59:01.289Z,53.80
2018-04-07T01:01:28.793Z,53.80
2018-04-07T01:03:56.283Z,53.80
2018-04-07T01:06:23.793Z,53.90
2018-04-07T01:08:52.046Z,54.20
2018-04-07T01:11:19.554Z,54.10
2018-04-07T01:13:47.045Z,54.30
2018-04-07T01:16:14.565Z,54.80
2018-04-07T01:18:42.045Z,55.40
2018-04-07T01:21:09.565Z,56.10
2018-04-07T01:23:37.817Z,57.10
2018-04-07T01:26:05.321Z,57.10
2018-04-07T01:28:32.805Z,57.40
2018-04-07T01:31:00.317Z,58.10
2018-04-07T01:33:28.569Z,59.90
2018-04-07T01:35:56.073Z,59.80
2018-04-07T01:38:23.557Z,60.90
2018-04-07T01:40:51.065Z,61.90
2018-04-07T01:43:19.317Z,63.00
2018-04-07T01:45:46.875Z,63.00
2018-04-07T01:48:14.329Z,63.80
2018-04-07T01:50:41.844Z,64.10
2018-04-07T01:53:09.329Z,64.70
2018-04-07T01:55:36.842Z,65.60
2018-04-07T01:58:05.089Z,67.10
2018-04-07T02:00:32.601Z,67.10
2018-04-07T02:03:00.095Z,67.80
2018-04-07T02:05:27.620Z,68.10
2018-04-07T02:07:55.114Z,68.80
2018-04-07T02:10:22.626Z,69.30
2018-04-07T02:12:50.113Z,69.20
2018-04-07T02:15:17.622Z,69.80
2018-04-07T02:17:45.884Z,71.60
2018-04-07T02:20:13.398Z,71.60
2018-04-07T02:22:40.894Z,72.80
2018-04-07T02:25:08.406Z,72.50
2018-04-07T02:27:35.893Z,72.70
2018-04-07T02:30:03.413Z,72.60
2018-04-07T02:32:30.906Z,73.00
2018-04-07T02:34:58.427Z,73.20
2018-04-07T02:37:25.923Z,73.50
2018-04-07T02:39:53.434Z,73.80
2018-04-07T02:42:20.927Z,73.90
2018-04-07T02:44:48.444Z,74.10
2018-04-07T02:47:16.702Z,74.60
2018-04-07T02:49:44.982Z,74.60
2018-04-07T02:52:13.287Z,75.70
2018-04-07T02:54:40.823Z,74.90
2018-04-07T02:57:09.087Z,76.00
2018-04-07T02:59:36.607Z,76.00
2018-04-07T03:02:04.102Z,76.50
2018-04-07T03:04:31.615Z,77.50
2018-04-07T03:06:59.115Z,78.10
2018-04-07T03:09:27.414Z,79.40
2018-04-07T03:11:55.679Z,79.70
2018-04-07T03:14:23.967Z,80.20
2018-04-07T03:16:52.222Z,80.60
2018-04-07T03:19:19.742Z,80.60
2018-04-07T03:21:47.238Z,81.10
2018-04-07T03:24:14.754Z,81.40
2018-04-07T03:26:42.246Z,81.70
2018-04-07T03:29:09.759Z,81.60
2018-04-07T03:31:37.263Z,81.70
2018-04-07T03:34:04.782Z,82.00
2018-04-07T03:36:32.273Z,81.70
2018-04-07T03:38:59.786Z,81.70
2018-04-07T03:41:27.286Z,82.00
2018-04-07T03:43:54.803Z,81.80
2018-04-07T03:46:22.294Z,82.10
2018-04-07T03:48:49.806Z,82.30
2018-04-07T03:51:18.067Z,82.60
2018-04-07T03:53:46.350Z,83.40
2018-04-07T03:56:14.611Z,82.80
2018-04-07T03:58:42.130Z,82.80
2018-04-07T04:01:09.618Z,82.80
2018-04-07T04:03:37.147Z,82.90
2018-04-07T04:06:04.638Z,83.30
2018-04-07T04:08:32.150Z,83.70
2018-04-07T04:10:59.638Z,84.00
2018-04-07T04:13:27.154Z,84.20
2018-04-07T04:15:54.642Z,84.50
2018-04-07T04:18:22.154Z,84.40
2018-04-07T04:20:50.410Z,85.20
2018-04-07T04:23:17.926Z,85.20
2018-04-07T04:25:45.418Z,85.30
2018-04-07T04:28:12.930Z,85.40
2018-04-07T04:30:40.417Z,85.70
2018-04-07T04:33:07.925Z,85.90
2018-04-07T04:35:36.193Z,86.10
2018-04-07T04:38:04.479Z,86.50
2018-04-07T04:40:32.742Z,86.50
2018-04-07T04:43:01.027Z,86.40
2018-04-07T04:45:29.287Z,86.40
2018-04-07T04:47:56.802Z,86.30
2018-04-07T04:50:24.295Z,86.40
2018-04-07T04:52:51.811Z,86.50
2018-04-07T04:55:19.302Z,86.60
2018-04-07T04:57:46.823Z,86.70
2018-04-07T05:00:14.317Z,86.80
2018-04-07T05:02:41.835Z,86.80
2018-04-07T05:05:09.330Z,86.60
2018-04-07T05:07:36.842Z,86.70
2018-04-07T05:10:04.339Z,86.80
2018-04-07T05:12:31.855Z,87.10
2018-04-07T05:14:59.347Z,87.20
2018-04-07T05:17:26.867Z,87.00
2018-04-07T05:19:55.125Z,86.90
2018-04-07T05:22:22.638Z,86.90
2018-04-07T05:24:50.133Z,87.00
2018-04-07T05:27:17.646Z,88.00
2018-04-07T05:29:45.142Z,87.00
2018-04-07T05:32:12.658Z,87.20
2018-04-07T05:34:40.158Z,87.30
2018-04-07T05:37:07.676Z,87.40
2018-04-07T05:39:35.171Z,87.10
2018-04-07T05:42:02.704Z,87.30
2018-04-07T05:44:30.194Z,87.10
2018-04-07T05:46:57.707Z,86.70
2018-04-07T05:49:25.198Z,86.60
2018-04-07T05:51:52.715Z,86.90
2018-04-07T05:54:20.205Z,87.30
2018-04-07T05:56:47.722Z,87.30
2018-04-07T05:59:15.218Z,87.10
2018-04-07T06:01:42.730Z,87.20
2018-04-07T06:04:10.990Z,87.60
2018-04-07T06:06:38.510Z,86.80
2018-04-07T06:09:06.006Z,86.80
2018-04-07T06:11:33.518Z,86.70
2018-04-07T06:14:01.018Z,86.90
2018-04-07T06:16:28.534Z,87.20
2018-04-07T06:18:56.030Z,86.90
2018-04-07T06:21:23.550Z,86.60
2018-04-07T06:23:51.042Z,86.90
2018-04-07T06:26:18.558Z,87.00
2018-04-07T06:28:46.093Z,87.20
2018-04-07T06:31:13.594Z,86.90
2018-04-07T06:33:41.093Z,87.40
2018-04-07T06:36:08.605Z,87.10
2018-04-07T06:38:36.094Z,87.20
2018-04-07T06:41:04.381Z,86.50
2018-04-07T06:43:31.873Z,86.50
2018-04-07T06:45:59.391Z,86.30
2018-04-07T06:48:26.881Z,85.60
2018-04-07T06:50:55.165Z,83.20
2018-04-07T06:53:22.657Z,83.20
2018-04-07T06:55:50.174Z,83.00
2018-04-07T06:58:18.430Z,81.70
2018-04-07T07:00:45.943Z,81.70
2018-04-07T07:03:13.444Z,82.30
2018-04-07T07:05:40.957Z,81.30
2018-04-07T07:08:08.452Z,80.30
2018-04-07T07:10:35.966Z,79.80
2018-04-07T07:13:03.458Z,79.80
2018-04-07T07:15:30.975Z,79.40
2018-04-07T07:17:58.478Z,79.40
2018-04-07T07:20:25.990Z,78.40
2018-04-07T07:22:53.487Z,78.30
2018-04-07T07:25:21.002Z,77.90
2018-04-07T07:27:48.498Z,77.50
2018-04-07T07:30:16.011Z,77.20
2018-04-07T07:32:43.506Z,77.70
2018-04-07T07:35:11.022Z,77.50
2018-04-07T07:37:39.288Z,76.60
2018-04-07T07:40:07.583Z,76.90
2018-04-07T07:42:35.074Z,76.80
2018-04-07T07:45:02.590Z,75.30
2018-04-07T07:47:30.850Z,75.70
2018-04-07T07:49:58.366Z,75.60
2018-04-07T07:52:25.857Z,74.80
2018-04-07T07:54:53.371Z,75.50
2018-04-07T07:57:20.862Z,76.20
2018-04-07T07:59:48.378Z,75.40
2018-04-07T08:02:15.870Z,74.70
2018-04-07T08:04:43.382Z,76.50
2018-04-07T08:07:10.876Z,75.20
2018-04-07T08:09:38.391Z,75.40
2018-04-07T08:12:06.649Z,75.40
2018-04-07T08:14:34.162Z,75.30
2018-04-07T08:17:01.664Z,73.60
2018-04-07T08:19:29.201Z,72.80
2018-04-07T08:21:56.702Z,71.70
2018-04-07T08:24:24.988Z,72.70
2018-04-07T08:26:52.511Z,72.60
2018-04-07T08:29:20.045Z,72.80
2018-04-07T08:31:48.310Z,72.10
2018-04-07T08:34:15.831Z,72.00
2018-04-07T08:36:44.099Z,74.30
2018-04-07T08:39:12.381Z,73.80
2018-04-07T08:41:40.649Z,73.60
2018-04-07T08:44:08.944Z,72.60
2018-04-07T08:46:37.206Z,72.90
2018-04-07T08:49:05.470Z,71.30
2018-04-07T08:51:33.002Z,71.30
2018-04-07T08:54:00.502Z,69.70
2018-04-07T08:56:28.790Z,69.70
2018-04-07T08:58:56.299Z,69.50
2018-04-07T09:01:23.823Z,69.90
2018-04-07T09:03:51.326Z,72.50
2018-04-07T09:06:18.843Z,71.70
2018-04-07T09:08:46.342Z,73.10
2018-04-07T09:11:13.842Z,69.10
2018-04-07T09:13:41.366Z,69.70
2018-04-07T09:16:08.875Z,68.60
2018-04-07T09:18:36.390Z,67.90
2018-04-07T09:21:03.891Z,69.70
2018-04-07T09:23:31.409Z,68.20
2018-04-07T09:25:58.905Z,66.40
2018-04-07T09:28:26.426Z,64.90
2018-04-07T09:30:59.506Z,63.00
2018-04-07T09:33:27.027Z,62.40
2018-04-07T09:35:54.519Z,63.50
2018-04-07T09:38:22.018Z,60.50
2018-04-07T09:40:49.538Z,58.90
2018-04-07T09:43:17.030Z,59.50
2018-04-07T09:45:45.318Z,56.80
2018-04-07T09:48:12.825Z,56.80
2018-04-07T09:50:40.518Z,52.80
2018-04-07T09:53:08.784Z,41.50
2018-04-07T09:55:36.310Z,41.30
2018-04-07T09:58:03.801Z,35.10
2018-04-07T10:00:31.320Z,31.80
2018-04-07T10:03:00.805Z,30.80
2018-04-07T10:05:28.329Z,27.90
2018-04-07T10:07:56.591Z,27.00
2018-04-07T10:10:24.118Z,26.90
2018-04-07T10:12:51.609Z,25.50
2018-04-07T10:15:19.125Z,25.90
2018-04-07T10:17:46.620Z,24.60
2018-04-07T10:20:14.142Z,24.20
2018-04-07T10:22:41.634Z,23.40
2018-04-07T10:25:09.126Z,22.00
2018-04-07T10:27:37.406Z,20.60
2018-04-07T10:30:05.662Z,21.20
2018-04-07T10:32:33.181Z,21.10
2018-04-07T10:35:00.675Z,20.80
2018-04-07T10:37:28.190Z,21.20
2018-04-07T10:39:55.687Z,20.90
2018-04-07T10:42:23.211Z,20.80
2018-04-07T10:44:50.715Z,19.70
2018-04-07T10:47:18.990Z,18.60
2018-04-07T10:49:47.277Z,18.50
2018-04-07T10:52:15.538Z,18.30
2018-04-07T10:54:43.055Z,18.20
2018-04-07T10:57:10.554Z,18.00
2018-04-07T10:59:38.078Z,18.20
2018-04-07T11:02:05.586Z,18.80
2018-04-07T11:04:33.865Z,18.30
2018-04-07T11:07:02.127Z,16.80
2018-04-07T11:09:30.390Z,16.90
2018-04-07T11:11:57.907Z,16.80
2018-04-07T11:14:25.429Z,17.70
2018-04-07T11:16:53.712Z,18.30
2018-04-07T11:19:21.970Z,16.90
2018-04-07T11:21:49.487Z,16.80
2018-04-07T11:24:16.983Z,16.80
2018-04-07T11:26:44.505Z,17.30
2018-04-07T11:29:12.002Z,16.50
2018-04-07T11:31:39.505Z,16.20
2018-04-07T11:34:07.879Z,16.60
2018-04-07T11:36:35.413Z,17.20
2018-04-07T11:39:03.674Z,15.70
2018-04-07T11:41:31.169Z,15.60
2018-04-07T11:43:58.685Z,15.80
2018-04-07T11:46:26.210Z,15.60
2018-04-07T11:48:53.707Z,15.60
2018-04-07T11:51:21.226Z,16.10
2018-04-07T11:53:48.727Z,16.50
2018-04-07T11:56:16.226Z,15.70
2018-04-07T11:58:43.750Z,15.70
2018-04-07T12:01:12.034Z,14.60
2018-04-07T12:03:40.291Z,14.80
2018-04-07T12:06:07.794Z,14.80
2018-04-07T12:08:35.309Z,15.70
2018-04-07T12:11:02.802Z,15.40
2018-04-07T12:13:30.323Z,15.40
2018-04-07T12:15:57.814Z,15.90
2018-04-07T12:18:26.098Z,17.70
2018-04-07T12:20:53.594Z,17.60
2018-04-07T12:23:21.096Z,17.60
2018-04-07T12:25:49.382Z,19.50
2018-04-07T12:28:17.643Z,19.30
2018-04-07T12:30:45.935Z,19.30
2018-04-07T12:33:14.197Z,19.20
2018-04-07T12:35:42.482Z,20.40
2018-04-07T12:38:10.747Z,19.80
2018-04-07T12:40:39.040Z,20.00
2018-04-07T12:43:06.534Z,19.90
2018-04-07T12:45:34.049Z,20.50
2018-04-07T12:48:02.310Z,19.20
2018-04-07T12:50:29.805Z,19.20
2018-04-07T12:52:57.326Z,19.40
2018-04-07T12:55:24.827Z,17.60
2018-04-07T12:57:52.342Z,17.90
2018-04-07T13:00:20.619Z,16.70
2018-04-07T13:02:48.141Z,16.60
2018-04-07T13:05:15.638Z,16.70
2018-04-07T13:07:43.192Z,16.90
2018-04-07T13:10:10.691Z,17.00
2018-04-07T13:12:38.195Z,16.50
2018-04-07T13:15:05.712Z,16.10
2018-04-07T13:17:33.210Z,16.10
2018-04-07T13:20:00.722Z,15.70
2018-04-07T13:22:28.218Z,16.40
2018-04-07T13:24:55.733Z,18.30
2018-04-07T13:27:23.256Z,18.40
2018-04-07T13:29:50.765Z,19.50
2018-04-07T13:32:18.258Z,18.90
2018-04-07T13:34:45.774Z,18.80
2018-04-07T13:37:13.287Z,19.20
2018-04-07T13:39:40.790Z,19.10
2018-04-07T13:42:08.307Z,19.60
2018-04-07T13:44:35.810Z,20.50
2018-04-07T13:47:03.327Z,20.40
2018-04-07T13:49:30.826Z,20.80
2018-04-07T13:51:58.350Z,19.60
2018-04-07T13:54:25.851Z,18.70
2018-04-07T13:56:53.377Z,18.70
2018-04-07T13:59:21.646Z,19.30
2018-04-07T14:01:49.910Z,19.20
2018-04-07T14:04:17.425Z,18.80
2018-04-07T14:06:44.921Z,18.60
2018-04-07T14:09:12.438Z,17.50
2018-04-07T14:11:39.930Z,17.80
2018-04-07T14:14:07.442Z,17.10
2018-04-07T14:16:34.934Z,17.00
2018-04-07T14:19:02.458Z,17.00
2018-04-07T14:21:29.958Z,17.60
2018-04-07T14:23:57.458Z,17.20
2018-04-07T14:26:25.748Z,16.80
2018-04-07T14:28:53.242Z,16.80
2018-04-07T14:31:20.762Z,16.90
2018-04-07T14:33:49.026Z,18.30
2018-04-07T14:36:17.311Z,18.60
2018-04-07T14:38:45.574Z,18.70
2018-04-07T14:41:13.863Z,19.60
2018-04-07T14:43:42.126Z,20.70
2018-04-07T14:46:10.386Z,20.50
2018-04-07T14:48:37.910Z,20.30
2018-04-07T14:51:05.411Z,20.50
2018-04-07T14:53:32.930Z,20.40
2018-04-07T14:56:00.429Z,21.60
2018-04-07T14:58:27.954Z,21.30
2018-04-07T15:00:55.450Z,21.90
2018-04-07T15:03:23.026Z,21.30
2018-04-07T15:05:51.294Z,21.20
2018-04-07T15:08:19.562Z,21.70
2018-04-07T15:10:47.077Z,21.70
2018-04-07T15:13:14.570Z,21.90
2018-04-07T15:15:42.090Z,22.00
2018-04-07T15:18:09.588Z,22.60
2018-04-07T15:20:37.110Z,22.80
2018-04-07T15:23:04.601Z,23.50
2018-04-07T15:25:32.114Z,23.00
2018-04-07T15:27:59.614Z,23.30
2018-04-07T15:30:27.110Z,23.40
2018-04-07T15:32:55.394Z,22.30
2018-04-07T15:35:22.886Z,22.30
2018-04-07T15:37:50.409Z,22.30
2018-04-07T15:40:17.910Z,22.60
2018-04-07T15:42:45.434Z,23.10
2018-04-07T15:45:12.930Z,22.90
2018-04-07T15:47:40.446Z,22.50
2018-04-07T15:50:07.942Z,22.70
2018-04-07T15:52:35.438Z,23.00
2018-04-07T15:55:03.726Z,23.80
2018-04-07T15:57:31.990Z,23.40
2018-04-07T16:00:01.354Z,23.70
2018-04-07T16:02:28.854Z,23.40
2018-04-07T16:04:57.138Z,22.80
2018-04-07T16:07:25.402Z,22.70
2018-04-07T16:09:53.691Z,23.20
2018-04-07T16:12:21.950Z,22.80
2018-04-07T16:14:49.442Z,22.80
2018-04-07T16:17:16.962Z,23.60
2018-04-07T16:19:44.457Z,22.50
2018-04-07T16:22:11.973Z,22.70
2018-04-07T16:24:39.469Z,23.50
2018-04-07T16:27:06.984Z,22.60
2018-04-07T16:29:34.478Z,23.40
2018-04-07T16:32:02.765Z,23.00
2018-04-07T16:34:30.258Z,23.00
2018-04-07T16:36:57.775Z,23.10
2018-04-07T16:39:26.033Z,23.00
2018-04-07T16:41:53.902Z,23.00
2018-04-07T16:44:22.186Z,23.50
2018-04-07T16:46:50.446Z,23.30
2018-04-07T16:49:17.962Z,23.30
2018-04-07T16:51:45.454Z,23.80
2018-04-07T16:54:12.967Z,23.60
2018-04-07T16:56:40.464Z,23.90
2018-04-07T16:59:07.982Z,24.20
2018-04-07T17:01:35.482Z,24.30
2018-04-07T17:04:02.976Z,24.70
2018-04-07T17:06:31.258Z,24.90
2018-04-07T17:08:59.522Z,25.20
2018-04-07T17:11:27.802Z,25.00
2018-04-07T17:13:56.065Z,25.10
2018-04-07T17:16:23.586Z,25.10
2018-04-07T17:18:51.082Z,25.00
2018-04-07T17:21:18.606Z,25.20
2018-04-07T17:23:46.134Z,25.30
2018-04-07T17:26:13.632Z,25.30
2018-04-07T17:28:41.157Z,25.30
2018-04-07T17:31:08.658Z,25.50
2018-04-07T17:33:36.177Z,25.60
2018-04-07T17:36:03.724Z,26.00
2018-04-07T17:38:31.242Z,26.50
2018-04-07T17:40:58.742Z,26.00
2018-04-07T17:43:26.267Z,26.20
2018-04-07T17:45:54.545Z,27.10
2018-04-07T17:48:22.065Z,26.50
2018-04-07T17:50:49.558Z,26.70
2018-04-07T17:53:17.086Z,26.80
2018-04-07T17:55:44.585Z,27.50
2018-04-07T17:58:12.874Z,27.40
2018-04-07T18:00:41.138Z,27.50
2018-04-07T18:03:09.422Z,27.80
2018-04-07T18:05:37.719Z,27.60
2018-04-07T18:08:05.238Z,27.50
2018-04-07T18:10:32.731Z,27.90
2018-04-07T18:13:00.245Z,28.00
2018-04-07T18:15:27.746Z,28.20
2018-04-07T18:17:55.286Z,28.40
2018-04-07T18:20:23.554Z,28.80
2018-04-07T18:22:51.070Z,28.80
2018-04-07T18:25:18.566Z,28.90
2018-04-07T18:27:46.086Z,28.80
2018-04-07T18:30:13.577Z,29.10
2018-04-07T18:32:41.093Z,29.10
2018-04-07T18:35:08.593Z,29.20
2018-04-07T18:37:36.117Z,29.30
2018-04-07T18:40:03.633Z,29.40
2018-04-07T18:42:31.922Z,29.50
2018-04-07T18:45:00.183Z,29.70
2018-04-07T18:47:28.483Z,29.90
2018-04-07T18:49:55.986Z,29.80
2018-04-07T18:52:23.501Z,30.00
2018-04-07T18:54:51.002Z,30.10
2018-04-07T18:57:18.518Z,30.20
2018-04-07T18:59:46.014Z,30.30
2018-04-07T19:02:13.534Z,30.40
2018-04-07T19:04:41.025Z,30.30
2018-04-07T19:07:08.547Z,30.40
2018-04-07T19:09:36.042Z,30.30
2018-04-07T19:12:03.567Z,30.20
2018-04-07T19:14:31.065Z,30.20
2018-04-07T19:16:58.586Z,30.30
2018-04-07T19:19:26.094Z,30.20
2018-04-07T19:21:53.611Z,30.60
2018-04-07T19:24:21.115Z,30.50
2018-04-07T19:26:48.634Z,30.60
2018-04-07T19:29:16.138Z,30.90
2018-04-07T19:31:43.667Z,31.00
2018-04-07T19:34:11.170Z,31.20
2018-04-07T19:36:39.466Z,31.90
2018-04-07T19:39:06.962Z,31.40
2018-04-07T19:41:34.508Z,31.60
2018-04-07T19:44:02.002Z,31.70
2018-04-07T19:46:29.523Z,32.50
2018-04-07T19:48:57.021Z,32.30
2018-04-07T19:51:24.543Z,33.00
2018-04-07T19:53:52.043Z,32.90
2018-04-07T19:56:19.566Z,33.20
2018-04-07T19:58:47.070Z,32.90
2018-04-07T20:01:14.619Z,34.40
2018-04-07T20:03:42.118Z,35.60
2018-04-07T20:06:09.647Z,35.70
2018-04-07T20:08:37.155Z,35.60
2018-04-07T20:11:04.678Z,35.10
2018-04-07T20:13:32.950Z,35.00
2018-04-07T20:16:01.239Z,36.10
2018-04-07T20:18:29.507Z,36.80
2018-04-07T20:20:57.044Z,36.80
2018-04-07T20:23:24.555Z,37.10
2018-04-07T20:25:52.108Z,37.30
2018-04-07T20:28:19.619Z,37.30
2018-04-07T20:30:47.151Z,38.40
2018-04-07T20:33:14.650Z,38.60
2018-04-07T20:35:42.943Z,38.00
2018-04-07T20:38:10.459Z,38.00
2018-04-07T20:40:37.980Z,38.40
2018-04-07T20:43:13.271Z,38.50
2018-04-07T20:45:40.794Z,38.80
2018-04-07T20:48:08.301Z,38.90
2018-04-07T20:50:36.585Z,39.30
2018-04-07T20:53:04.854Z,39.40
2018-04-07T20:55:32.376Z,39.30
2018-04-07T20:57:59.878Z,39.60
2018-04-07T21:00:28.220Z,39.60
2018-04-07T21:02:55.690Z,39.50
2018-04-07T21:05:23.211Z,39.70
2018-04-07T21:07:50.706Z,39.80
2018-04-07T21:10:18.646Z,40.20
2018-04-07T21:12:46.151Z,40.50
2018-04-07T21:15:13.815Z,40.70
2018-04-07T21:17:42.099Z,41.80
2018-04-07T21:20:10.394Z,42.10
2018-04-07T21:22:37.911Z,42.10
2018-04-07T21:25:05.443Z,42.50
2018-04-07T21:27:32.966Z,42.80
2018-04-07T21:30:01.267Z,43.30
2018-04-07T21:32:28.818Z,43.20
2018-04-07T21:34:56.338Z,43.60
2018-04-07T21:37:23.843Z,43.90
2018-04-07T21:39:51.366Z,44.20
2018-04-07T21:42:19.636Z,44.60
2018-04-07T21:44:47.153Z,44.60
2018-04-07T21:47:14.657Z,45.00
2018-04-07T21:49:42.182Z,45.20
2018-04-07T21:52:09.683Z,45.50
2018-04-07T21:54:37.983Z,45.60
2018-04-07T21:57:05.490Z,45.60
2018-04-07T21:59:33.015Z,46.00
2018-04-07T22:02:00.512Z,46.10
2018-04-07T22:04:28.040Z,46.10
2018-04-07T22:06:55.542Z,46.10
2018-04-07T22:09:23.069Z,46.70
2018-04-07T22:11:50.582Z,46.60
2018-04-07T22:14:18.110Z,47.50
2018-04-07T22:16:45.614Z,48.10
2018-04-07T22:19:13.146Z,48.20
2018-04-07T22:21:41.414Z,47.80
2018-04-07T22:24:08.946Z,47.80
2018-04-07T22:26:36.475Z,48.70
2018-04-07T22:29:03.994Z,49.20
2018-04-07T22:31:32.267Z,50.20
2018-04-07T22:34:00.562Z,50.60
2018-04-07T22:36:28.833Z,51.30
2018-04-07T22:38:57.127Z,51.80
2018-04-07T22:41:24.634Z,52.30
2018-04-07T22:43:52.158Z,52.10
2018-04-07T22:46:19.662Z,52.60
2018-04-07T22:48:47.183Z,52.70
2018-04-07T22:51:14.708Z,53.20
2018-04-07T22:53:42.242Z,53.90
2018-04-07T22:56:09.757Z,54.30
2018-04-07T22:58:37.286Z,54.80
2018-04-07T23:01:05.551Z,55.50
2018-04-07T23:03:33.845Z,55.90
2018-04-07T23:06:01.355Z,55.70
2018-04-07T23:08:28.878Z,56.40
2018-04-07T23:10:56.382Z,57.00
2018-04-07T23:13:23.911Z,57.30
2018-04-07T23:15:51.418Z,58.00
2018-04-07T23:18:19.709Z,59.00
2018-04-07T23:20:47.978Z,59.20
2018-04-07T23:23:16.280Z,59.50
2018-04-07T23:25:43.786Z,59.50
2018-04-07T23:28:11.312Z,59.80
2018-04-07T23:30:38.818Z,60.10
2018-04-07T23:33:07.109Z,63.20
2018-04-07T23:35:35.374Z,63.00
2018-04-07T23:38:03.658Z,64.10
2018-04-07T23:40:31.921Z,64.70
2018-04-07T23:42:59.447Z,64.50
2018-04-07T23:45:26.962Z,64.90
2018-04-07T23:47:54.463Z,66.50
2018-04-07T23:50:21.990Z,66.10
2018-04-07T23:52:49.490Z,67.10
2018-04-07T23:55:17.018Z,68.00
2018-04-07T23:57:44.527Z,68.30
